createdAt,value
2023-03-07T00:00:40.217Z,0.00
2023-03-07T00:01:40.136Z,0.00
2023-03-07T00:02:40.137Z,0.00
2023-03-07T00:03:39.985Z,0.00
2023-03-07T00:04:39.876Z,0.00
2023-03-07T00:05:39.797Z,0.00
2023-03-07T00:06:39.706Z,0.00
2023-03-07T00:07:39.633Z,0.00
2023-03-07T00:08:39.547Z,0.00
2023-03-07T00:09:39.449Z,0.00
2023-03-07T00:10:39.370Z,0.00
2023-03-07T00:11:39.285Z,0.00
2023-03-07T00:12:39.190Z,0.00
2023-03-07T00:13:39.110Z,0.00
2023-03-07T00:14:39.023Z,0.00
2023-03-07T00:15:38.965Z,0.00
2023-03-07T00:16:38.858Z,0.00
2023-03-07T00:17:38.773Z,0.00
2023-03-07T00:18:38.687Z,0.00
2023-03-07T00:19:38.601Z,0.00
2023-03-07T00:20:38.522Z,0.00
2023-03-07T00:21:38.454Z,0.00
2023-03-07T00:22:38.342Z,0.00
2023-03-07T00:23:38.264Z,0.00
2023-03-07T00:24:38.174Z,0.00
2023-03-07T00:25:38.095Z,0.00
2023-03-07T00:26:38.007Z,0.00
2023-03-07T00:27:37.922Z,0.00
2023-03-07T00:28:37.829Z,0.00
2023-03-07T00:29:37.745Z,0.00
2023-03-07T00:30:37.662Z,0.00
2023-03-07T00:31:37.640Z,0.00
2023-03-07T00:32:37.531Z,0.00
2023-03-07T00:33:37.403Z,0.00
2023-03-07T00:34:37.324Z,0.00
2023-03-07T00:35:37.234Z,0.00
2023-03-07T00:36:37.146Z,0.00
2023-03-07T00:37:37.061Z,0.00
2023-03-07T00:38:36.978Z,0.00
2023-03-07T00:39:36.891Z,0.00
2023-03-07T00:40:36.812Z,0.00
2023-03-07T00:41:36.729Z,0.00
2023-03-07T00:42:36.655Z,0.00
2023-03-07T00:43:36.558Z,0.00
2023-03-07T00:44:36.480Z,0.00
2023-03-07T00:45:36.399Z,0.00
2023-03-07T00:46:36.293Z,0.00
2023-03-07T00:47:36.211Z,0.00
2023-03-07T00:48:36.138Z,0.00
2023-03-07T00:49:36.040Z,0.00
2023-03-07T00:50:35.957Z,0.00
2023-03-07T00:51:35.871Z,0.00
2023-03-07T00:52:35.786Z,0.00
2023-03-07T00:53:35.699Z,0.00
2023-03-07T00:54:35.610Z,0.00
2023-03-07T00:55:35.530Z,0.00
2023-03-07T00:56:35.437Z,0.00
2023-03-07T00:57:35.358Z,0.00
2023-03-07T00:58:35.273Z,0.00
2023-03-07T00:59:35.190Z,0.00
2023-03-07T01:00:35.126Z,0.00
2023-03-07T01:01:35.013Z,0.00
2023-03-07T01:02:34.933Z,0.00
2023-03-07T01:03:34.842Z,0.00
2023-03-07T01:04:34.828Z,0.00
2023-03-07T01:05:34.680Z,0.00
2023-03-07T01:06:34.587Z,0.00
2023-03-07T01:07:34.502Z,0.00
2023-03-07T01:08:34.420Z,0.00
2023-03-07T01:09:34.329Z,0.00
2023-03-07T01:10:34.244Z,0.00
2023-03-07T01:11:34.165Z,0.00
2023-03-07T01:12:34.074Z,0.00
2023-03-07T01:13:33.990Z,0.00
2023-03-07T01:14:33.912Z,0.00
2023-03-07T01:15:33.827Z,0.00
2023-03-07T01:16:33.738Z,0.00
2023-03-07T01:17:33.647Z,0.00
2023-03-07T01:18:33.561Z,0.00
2023-03-07T01:19:33.477Z,0.00
2023-03-07T01:20:33.389Z,0.00
2023-03-07T01:21:33.307Z,0.00
2023-03-07T01:22:33.224Z,0.00
2023-03-07T01:23:33.135Z,0.00
2023-03-07T01:24:33.054Z,0.00
2023-03-07T01:25:32.963Z,0.00
2023-03-07T01:26:32.879Z,0.00
2023-03-07T01:27:32.796Z,0.00
2023-03-07T01:28:32.706Z,0.00
2023-03-07T01:29:32.623Z,0.00
2023-03-07T01:30:32.540Z,0.00
2023-03-07T01:31:32.635Z,0.00
2023-03-07T01:32:32.488Z,0.00
2023-03-07T01:33:32.279Z,0.00
2023-03-07T01:34:32.194Z,0.00
2023-03-07T01:35:32.134Z,0.00
2023-03-07T01:36:32.040Z,0.00
2023-03-07T01:37:31.938Z,0.00
2023-03-07T01:38:31.851Z,0.00
2023-03-07T01:39:31.785Z,0.00
2023-03-07T01:40:31.680Z,0.00
2023-03-07T01:41:31.595Z,0.00
2023-03-07T01:42:31.508Z,0.00
2023-03-07T01:43:31.424Z,0.00
2023-03-07T01:44:31.346Z,0.00
2023-03-07T01:45:31.307Z,0.00
2023-03-07T01:46:31.183Z,0.00
2023-03-07T01:47:31.088Z,0.00
2023-03-07T01:48:31.000Z,0.00
2023-03-07T01:49:30.981Z,0.00
2023-03-07T01:50:30.825Z,0.00
2023-03-07T01:51:30.739Z,0.00
2023-03-07T01:52:30.653Z,0.00
2023-03-07T01:53:30.575Z,0.00
2023-03-07T01:54:30.481Z,0.00
2023-03-07T01:55:30.398Z,0.00
2023-03-07T01:56:30.310Z,0.00
2023-03-07T01:57:30.227Z,0.00
2023-03-07T01:58:30.139Z,0.00
2023-03-07T01:59:30.056Z,0.00
2023-03-07T02:00:30.035Z,0.00
2023-03-07T02:01:29.982Z,0.00
2023-03-07T02:02:29.833Z,0.00
2023-03-07T02:03:29.716Z,0.00
2023-03-07T02:04:29.665Z,0.00
2023-03-07T02:05:29.546Z,0.00
2023-03-07T02:06:29.454Z,0.00
2023-03-07T02:07:29.373Z,0.00
2023-03-07T02:08:29.284Z,0.00
2023-03-07T02:09:29.196Z,0.00
2023-03-07T02:10:29.111Z,0.00
2023-03-07T02:11:29.052Z,0.00
2023-03-07T02:12:28.943Z,0.00
2023-03-07T02:13:28.855Z,0.00
2023-03-07T02:14:28.778Z,0.00
2023-03-07T02:15:28.684Z,0.00
2023-03-07T02:16:28.597Z,0.00
2023-03-07T02:17:28.514Z,0.00
2023-03-07T02:18:28.435Z,0.00
2023-03-07T02:19:28.352Z,0.00
2023-03-07T02:20:28.274Z,0.00
2023-03-07T02:21:28.172Z,0.00
2023-03-07T02:22:28.087Z,0.00
2023-03-07T02:23:28.004Z,0.00
2023-03-07T02:24:27.915Z,0.00
2023-03-07T02:25:27.827Z,0.00
2023-03-07T02:26:27.743Z,0.00
2023-03-07T02:27:27.658Z,0.00
2023-03-07T02:28:27.577Z,0.00
2023-03-07T02:29:27.479Z,0.00
2023-03-07T02:30:27.405Z,0.00
2023-03-07T02:31:27.343Z,0.00
2023-03-07T02:32:27.288Z,0.00
2023-03-07T02:33:27.145Z,0.00
2023-03-07T02:34:27.071Z,0.00
2023-03-07T02:35:27.000Z,0.00
2023-03-07T02:36:26.893Z,0.00
2023-03-07T02:37:26.802Z,0.00
2023-03-07T02:38:26.718Z,0.00
2023-03-07T02:39:26.631Z,0.00
2023-03-07T02:40:26.552Z,0.00
2023-03-07T02:41:26.459Z,0.00
2023-03-07T02:42:26.376Z,0.00
2023-03-07T02:43:26.292Z,0.00
2023-03-07T02:44:26.213Z,0.00
2023-03-07T02:45:26.117Z,0.00
2023-03-07T02:46:26.056Z,0.00
2023-03-07T02:47:25.947Z,0.00
2023-03-07T02:48:25.861Z,0.00
2023-03-07T02:49:25.773Z,0.00
2023-03-07T02:50:25.699Z,0.00
2023-03-07T02:51:25.607Z,0.00
2023-03-07T02:52:25.519Z,0.00
2023-03-07T02:53:25.429Z,0.00
2023-03-07T02:54:25.359Z,0.00
2023-03-07T02:55:25.268Z,0.00
2023-03-07T02:56:25.172Z,0.00
2023-03-07T02:57:25.092Z,0.00
2023-03-07T02:58:25.003Z,0.00
2023-03-07T02:59:24.915Z,0.00
2023-03-07T03:00:24.831Z,0.00
2023-03-07T03:01:24.786Z,0.00
2023-03-07T03:02:24.661Z,0.00
2023-03-07T03:03:24.576Z,0.00
2023-03-07T03:04:24.572Z,0.00
2023-03-07T03:05:24.417Z,0.00
2023-03-07T03:06:24.343Z,0.00
2023-03-07T03:07:24.238Z,0.00
2023-03-07T03:08:24.157Z,0.00
2023-03-07T03:09:24.063Z,0.00
2023-03-07T03:10:23.979Z,0.00
2023-03-07T03:11:23.902Z,0.00
2023-03-07T03:12:23.814Z,0.00
2023-03-07T03:13:23.728Z,0.00
2023-03-07T03:14:23.675Z,0.00
2023-03-07T03:15:23.554Z,0.00
2023-03-07T03:16:23.574Z,0.00
2023-03-07T03:17:23.379Z,0.00
2023-03-07T03:18:23.307Z,0.00
2023-03-07T03:19:23.217Z,0.00
2023-03-07T03:20:23.126Z,0.00
2023-03-07T03:21:23.052Z,0.00
2023-03-07T03:22:22.983Z,0.00
2023-03-07T03:23:22.866Z,0.00
2023-03-07T03:24:22.781Z,0.00
2023-03-07T03:25:22.698Z,0.00
2023-03-07T03:26:22.612Z,0.00
2023-03-07T03:27:22.531Z,0.00
2023-03-07T03:28:22.443Z,0.00
2023-03-07T03:29:22.355Z,0.00
2023-03-07T03:30:22.272Z,0.00
2023-03-07T03:31:22.226Z,0.00
2023-03-07T03:32:22.150Z,0.00
2023-03-07T03:33:22.017Z,0.00
2023-03-07T03:34:21.932Z,0.00
2023-03-07T03:35:21.839Z,0.00
2023-03-07T03:36:21.754Z,0.00
2023-03-07T03:37:21.666Z,0.00
2023-03-07T03:38:21.590Z,0.00
2023-03-07T03:39:21.508Z,0.00
2023-03-07T03:40:21.415Z,0.00
2023-03-07T03:41:21.327Z,0.00
2023-03-07T03:42:21.248Z,0.00
2023-03-07T03:43:21.154Z,0.00
2023-03-07T03:44:21.077Z,0.00
2023-03-07T03:45:20.986Z,0.00
2023-03-07T03:46:20.923Z,0.00
2023-03-07T03:47:20.812Z,0.00
2023-03-07T03:48:20.723Z,0.00
2023-03-07T03:49:20.640Z,0.00
2023-03-07T03:50:20.551Z,0.00
2023-03-07T03:51:20.474Z,0.00
2023-03-07T03:52:20.388Z,0.00
2023-03-07T03:53:20.300Z,0.00
2023-03-07T03:54:20.226Z,0.00
2023-03-07T03:55:20.128Z,0.00
2023-03-07T03:56:20.039Z,0.00
2023-03-07T03:57:19.952Z,0.00
2023-03-07T03:58:19.871Z,0.00
2023-03-07T03:59:19.782Z,0.00
2023-03-07T04:00:21.103Z,0.00
2023-03-07T04:01:19.614Z,0.00
2023-03-07T04:02:19.607Z,0.00
2023-03-07T04:03:19.444Z,0.00
2023-03-07T04:04:19.352Z,0.00
2023-03-07T04:05:19.281Z,0.00
2023-03-07T04:06:19.183Z,0.00
2023-03-07T04:07:19.097Z,0.00
2023-03-07T04:08:19.013Z,0.00
2023-03-07T04:09:18.924Z,0.00
2023-03-07T04:10:18.846Z,0.00
2023-03-07T04:11:18.752Z,0.00
2023-03-07T04:12:18.665Z,0.00
2023-03-07T04:13:18.582Z,0.00
2023-03-07T04:14:18.502Z,0.00
2023-03-07T04:15:18.416Z,0.00
2023-03-07T04:16:18.396Z,0.00
2023-03-07T04:17:18.240Z,0.00
2023-03-07T04:18:18.149Z,0.00
2023-03-07T04:19:18.086Z,0.00
2023-03-07T04:20:17.983Z,0.00
2023-03-07T04:21:17.897Z,0.00
2023-03-07T04:22:17.808Z,0.00
2023-03-07T04:23:17.738Z,0.00
2023-03-07T04:24:17.650Z,0.00
2023-03-07T04:25:17.551Z,0.00
2023-03-07T04:26:17.524Z,0.00
2023-03-07T04:27:17.380Z,0.00
2023-03-07T04:28:17.292Z,0.00
2023-03-07T04:29:17.209Z,0.00
2023-03-07T04:30:17.125Z,0.00
2023-03-07T04:31:17.102Z,0.00
2023-03-07T04:32:16.958Z,0.00
2023-03-07T04:33:16.870Z,0.00
2023-03-07T04:34:16.789Z,0.00
2023-03-07T04:35:16.704Z,0.00
2023-03-07T04:36:16.608Z,0.00
2023-03-07T04:37:16.523Z,0.00
2023-03-07T04:38:16.447Z,0.00
2023-03-07T04:39:16.362Z,0.00
2023-03-07T04:40:16.267Z,0.00
2023-03-07T04:41:16.194Z,0.00
2023-03-07T04:42:16.098Z,0.00
2023-03-07T04:43:16.024Z,0.00
2023-03-07T04:44:15.936Z,0.00
2023-03-07T04:45:15.848Z,0.00
2023-03-07T04:46:15.792Z,0.00
2023-03-07T04:47:15.667Z,0.00
2023-03-07T04:48:15.580Z,0.00
2023-03-07T04:49:15.500Z,0.00
2023-03-07T04:50:15.414Z,0.00
2023-03-07T04:51:15.337Z,0.00
2023-03-07T04:52:15.249Z,0.00
2023-03-07T04:53:15.153Z,0.00
2023-03-07T04:54:15.072Z,0.00
2023-03-07T04:55:14.993Z,0.00
2023-03-07T04:56:14.897Z,0.00
2023-03-07T04:57:14.812Z,0.00
2023-03-07T04:58:14.729Z,0.00
2023-03-07T04:59:14.647Z,0.00
2023-03-07T05:00:14.557Z,0.00
2023-03-07T05:01:14.534Z,0.00
2023-03-07T05:02:14.388Z,0.00
2023-03-07T05:03:14.301Z,0.00
2023-03-07T05:04:14.245Z,0.00
2023-03-07T05:05:14.126Z,0.00
2023-03-07T05:06:14.037Z,0.00
2023-03-07T05:07:13.954Z,0.00
2023-03-07T05:08:13.870Z,0.00
2023-03-07T05:09:13.786Z,0.00
2023-03-07T05:10:13.738Z,0.00
2023-03-07T05:11:13.617Z,0.00
2023-03-07T05:12:13.533Z,0.00
2023-03-07T05:13:13.444Z,0.00
2023-03-07T05:14:13.357Z,0.00
2023-03-07T05:15:13.273Z,0.00
2023-03-07T05:16:13.222Z,0.00
2023-03-07T05:17:13.099Z,0.00
2023-03-07T05:18:13.010Z,0.00
2023-03-07T05:19:12.929Z,0.00
2023-03-07T05:20:12.838Z,0.00
2023-03-07T05:21:12.756Z,0.00
2023-03-07T05:22:12.666Z,0.00
2023-03-07T05:23:12.587Z,0.00
2023-03-07T05:24:12.508Z,0.00
2023-03-07T05:25:12.417Z,0.00
2023-03-07T05:26:12.325Z,0.00
2023-03-07T05:27:12.239Z,0.00
2023-03-07T05:28:12.158Z,0.00
2023-03-07T05:29:12.067Z,0.00
2023-03-07T05:30:11.985Z,0.00
2023-03-07T05:31:11.926Z,0.00
2023-03-07T05:32:11.861Z,0.00
2023-03-07T05:33:11.735Z,0.00
2023-03-07T05:34:11.638Z,0.00
2023-03-07T05:35:11.552Z,0.00
2023-03-07T05:36:11.465Z,0.00
2023-03-07T05:37:11.381Z,0.00
2023-03-07T05:38:11.295Z,0.00
2023-03-07T05:39:11.222Z,0.00
2023-03-07T05:40:11.173Z,0.00
2023-03-07T05:41:11.043Z,0.00
2023-03-07T05:42:10.956Z,0.00
2023-03-07T05:43:10.869Z,0.00
2023-03-07T05:44:10.785Z,0.00
2023-03-07T05:45:10.693Z,0.00
2023-03-07T05:46:10.634Z,0.00
2023-03-07T05:47:10.525Z,0.00
2023-03-07T05:48:10.438Z,0.00
2023-03-07T05:49:10.356Z,0.00
2023-03-07T05:50:10.273Z,0.00
2023-03-07T05:51:10.184Z,0.00
2023-03-07T05:52:10.095Z,0.00
2023-03-07T05:53:10.011Z,0.00
2023-03-07T05:54:09.925Z,0.00
2023-03-07T05:55:09.847Z,0.00
2023-03-07T05:56:09.754Z,0.00
2023-03-07T05:57:09.672Z,0.00
2023-03-07T05:58:09.584Z,0.00
2023-03-07T05:59:09.498Z,0.00
2023-03-07T06:00:09.407Z,0.00
2023-03-07T06:01:09.325Z,0.00
2023-03-07T06:02:09.250Z,0.00
2023-03-07T06:03:09.154Z,0.00
2023-03-07T06:04:09.138Z,0.00
2023-03-07T06:05:08.982Z,0.00
2023-03-07T06:06:08.894Z,0.00
2023-03-07T06:07:08.813Z,0.00
2023-03-07T06:08:08.726Z,0.00
2023-03-07T06:09:08.646Z,0.00
2023-03-07T06:10:08.557Z,0.00
2023-03-07T06:11:08.470Z,0.00
2023-03-07T06:12:08.379Z,0.00
2023-03-07T06:13:08.292Z,0.00
2023-03-07T06:14:08.209Z,0.00
2023-03-07T06:15:08.122Z,0.00
2023-03-07T06:16:08.113Z,0.00
2023-03-07T06:17:07.952Z,0.00
2023-03-07T06:18:07.872Z,0.00
2023-03-07T06:19:07.785Z,0.00
2023-03-07T06:20:07.699Z,0.00
2023-03-07T06:21:07.612Z,0.00
2023-03-07T06:22:07.524Z,0.00
2023-03-07T06:23:07.444Z,0.00
2023-03-07T06:24:07.376Z,0.00
2023-03-07T06:25:07.273Z,0.00
2023-03-07T06:26:07.197Z,0.00
2023-03-07T06:27:07.094Z,0.00
2023-03-07T06:28:07.014Z,0.00
2023-03-07T06:29:06.922Z,0.00
2023-03-07T06:30:06.839Z,0.00
2023-03-07T06:31:06.787Z,0.00
2023-03-07T06:32:06.748Z,5.63
2023-03-07T06:33:06.581Z,5.63
2023-03-07T06:34:06.503Z,5.63
2023-03-07T06:35:06.433Z,5.63
2023-03-07T06:36:06.333Z,5.63
2023-03-07T06:37:06.238Z,5.63
2023-03-07T06:38:06.158Z,5.63
2023-03-07T06:39:06.067Z,5.63
2023-03-07T06:40:05.988Z,5.63
2023-03-07T06:41:05.898Z,5.63
2023-03-07T06:42:05.811Z,5.63
2023-03-07T06:43:05.726Z,5.63
2023-03-07T06:44:05.644Z,5.63
2023-03-07T06:45:05.564Z,5.63
2023-03-07T06:46:05.496Z,5.63
2023-03-07T06:47:05.380Z,5.63
2023-03-07T06:48:05.298Z,5.63
2023-03-07T06:49:05.211Z,5.63
2023-03-07T06:50:05.128Z,5.63
2023-03-07T06:51:05.039Z,11.25
2023-03-07T06:52:04.958Z,11.25
2023-03-07T06:53:04.867Z,11.25
2023-03-07T06:54:04.786Z,11.25
2023-03-07T06:55:04.696Z,11.25
2023-03-07T06:56:04.621Z,11.25
2023-03-07T06:57:04.525Z,11.25
2023-03-07T06:58:04.441Z,11.25
2023-03-07T06:59:04.355Z,11.25
2023-03-07T07:00:04.269Z,11.25
2023-03-07T07:01:04.186Z,11.25
2023-03-07T07:02:04.218Z,11.25
2023-03-07T07:03:04.145Z,16.88
2023-03-07T07:04:03.927Z,16.88
2023-03-07T07:05:03.842Z,16.88
2023-03-07T07:06:03.775Z,16.88
2023-03-07T07:07:03.669Z,16.88
2023-03-07T07:08:03.587Z,16.88
2023-03-07T07:09:03.498Z,16.88
2023-03-07T07:10:03.415Z,16.88
2023-03-07T07:11:03.333Z,16.88
2023-03-07T07:12:03.253Z,16.88
2023-03-07T07:13:03.160Z,16.88
2023-03-07T07:14:03.079Z,16.88
2023-03-07T07:15:02.999Z,16.88
2023-03-07T07:16:02.898Z,16.88
2023-03-07T07:17:02.815Z,16.88
2023-03-07T07:18:02.736Z,16.88
2023-03-07T07:19:02.643Z,16.88
2023-03-07T07:20:02.557Z,16.88
2023-03-07T07:21:02.483Z,16.88
2023-03-07T07:22:02.397Z,16.88
2023-03-07T07:23:02.303Z,16.88
2023-03-07T07:24:02.232Z,16.88
2023-03-07T07:25:02.139Z,16.88
2023-03-07T07:26:02.048Z,16.88
2023-03-07T07:27:01.957Z,16.88
2023-03-07T07:28:01.879Z,16.88
2023-03-07T07:29:01.789Z,16.88
2023-03-07T07:30:01.740Z,11.25
2023-03-07T07:31:01.622Z,11.25
2023-03-07T07:32:01.690Z,11.25
2023-03-07T07:33:01.564Z,11.25
2023-03-07T07:34:01.378Z,11.25
2023-03-07T07:35:01.279Z,11.25
2023-03-07T07:36:01.204Z,11.25
2023-03-07T07:37:01.111Z,11.25
2023-03-07T07:38:01.026Z,16.88
2023-03-07T07:39:00.939Z,11.25
2023-03-07T07:40:00.853Z,11.25
2023-03-07T07:41:00.764Z,11.25
2023-03-07T07:42:00.683Z,16.88
2023-03-07T07:43:00.601Z,16.88
2023-03-07T07:44:00.511Z,11.25
2023-03-07T07:45:00.434Z,16.88
2023-03-07T07:46:00.404Z,16.88
2023-03-07T07:47:00.269Z,16.88
2023-03-07T07:48:00.169Z,16.88
2023-03-07T07:49:00.090Z,16.88
2023-03-07T07:50:00.010Z,22.50
2023-03-07T07:50:59.914Z,22.50
2023-03-07T07:51:59.828Z,16.88
2023-03-07T07:52:59.740Z,22.50
2023-03-07T07:53:59.673Z,22.50
2023-03-07T07:54:59.577Z,22.50
2023-03-07T07:55:59.490Z,16.88
2023-03-07T07:56:59.405Z,16.88
2023-03-07T07:57:59.326Z,16.88
2023-03-07T07:58:59.233Z,22.50
2023-03-07T07:59:59.149Z,22.50
2023-03-07T08:00:59.062Z,28.13
2023-03-07T08:01:58.993Z,28.13
2023-03-07T08:02:58.893Z,28.13
2023-03-07T08:03:58.807Z,28.13
2023-03-07T08:04:58.717Z,28.13
2023-03-07T08:05:58.644Z,22.50
2023-03-07T08:06:58.553Z,22.50
2023-03-07T08:07:58.469Z,22.50
2023-03-07T08:08:58.379Z,22.50
2023-03-07T08:09:58.306Z,22.50
2023-03-07T08:10:58.211Z,22.50
2023-03-07T08:11:58.132Z,22.50
2023-03-07T08:12:58.039Z,22.50
2023-03-07T08:13:57.957Z,22.50
2023-03-07T08:14:57.870Z,22.50
2023-03-07T08:15:57.847Z,22.50
2023-03-07T08:16:57.699Z,22.50
2023-03-07T08:17:57.619Z,22.50
2023-03-07T08:18:57.530Z,28.13
2023-03-07T08:19:57.575Z,28.13
2023-03-07T08:20:57.358Z,28.13
2023-03-07T08:21:57.275Z,28.13
2023-03-07T08:22:57.192Z,28.13
2023-03-07T08:23:57.119Z,28.13
2023-03-07T08:24:57.028Z,22.50
2023-03-07T08:25:56.964Z,22.50
2023-03-07T08:26:56.863Z,22.50
2023-03-07T08:27:56.764Z,22.50
2023-03-07T08:28:56.681Z,22.50
2023-03-07T08:29:56.600Z,22.50
2023-03-07T08:30:56.543Z,22.50
2023-03-07T08:31:56.425Z,22.50
2023-03-07T08:32:56.357Z,22.50
2023-03-07T08:33:56.256Z,22.50
2023-03-07T08:34:56.169Z,22.50
2023-03-07T08:35:56.112Z,22.50
2023-03-07T08:36:55.999Z,22.50
2023-03-07T08:37:55.925Z,22.50
2023-03-07T08:38:55.831Z,16.88
2023-03-07T08:39:55.754Z,16.88
2023-03-07T08:40:55.664Z,16.88
2023-03-07T08:41:55.577Z,16.88
2023-03-07T08:42:55.533Z,11.25
2023-03-07T08:43:55.404Z,11.25
2023-03-07T08:44:55.315Z,11.25
2023-03-07T08:45:55.252Z,11.25
2023-03-07T08:46:55.145Z,11.25
2023-03-07T08:47:55.084Z,11.25
2023-03-07T08:48:54.980Z,11.25
2023-03-07T08:49:54.904Z,11.25
2023-03-07T08:50:55.325Z,11.25
2023-03-07T08:51:54.722Z,11.25
2023-03-07T08:52:54.637Z,16.88
2023-03-07T08:53:54.550Z,16.88
2023-03-07T08:54:54.464Z,16.88
2023-03-07T08:55:54.381Z,16.88
2023-03-07T08:56:54.304Z,22.50
2023-03-07T08:57:54.258Z,22.50
2023-03-07T08:58:54.137Z,22.50
2023-03-07T08:59:54.049Z,22.50
2023-03-07T09:00:53.955Z,22.50
2023-03-07T09:01:53.954Z,22.50
2023-03-07T09:02:53.783Z,22.50
2023-03-07T09:03:53.721Z,22.50
2023-03-07T09:04:53.687Z,22.50
2023-03-07T09:05:53.546Z,22.50
2023-03-07T09:06:53.538Z,28.13
2023-03-07T09:07:53.362Z,28.13
2023-03-07T09:08:53.274Z,22.50
2023-03-07T09:09:53.200Z,22.50
2023-03-07T09:10:53.111Z,22.50
2023-03-07T09:11:53.023Z,28.13
2023-03-07T09:12:52.934Z,28.13
2023-03-07T09:13:53.414Z,28.13
2023-03-07T09:14:52.789Z,28.13
2023-03-07T09:15:52.697Z,28.13
2023-03-07T09:16:52.601Z,28.13
2023-03-07T09:17:52.512Z,28.13
2023-03-07T09:18:52.429Z,28.13
2023-03-07T09:19:52.344Z,28.13
2023-03-07T09:20:52.257Z,28.13
2023-03-07T09:21:52.173Z,28.13
2023-03-07T09:22:52.088Z,28.13
2023-03-07T09:23:52.006Z,28.13
2023-03-07T09:24:51.929Z,28.13
2023-03-07T09:25:51.845Z,28.13
2023-03-07T09:26:51.754Z,28.13
2023-03-07T09:27:52.081Z,28.13
2023-03-07T09:28:51.585Z,33.75
2023-03-07T09:29:51.500Z,33.75
2023-03-07T09:30:51.429Z,33.75
2023-03-07T09:31:51.429Z,33.75
2023-03-07T09:32:51.244Z,33.75
2023-03-07T09:33:51.162Z,39.38
2023-03-07T09:34:51.077Z,39.38
2023-03-07T09:35:51.015Z,39.38
2023-03-07T09:36:50.905Z,45.00
2023-03-07T09:37:50.827Z,50.63
2023-03-07T09:38:50.738Z,56.25
2023-03-07T09:39:50.652Z,56.25
2023-03-07T09:40:50.568Z,56.25
2023-03-07T09:41:50.506Z,61.88
2023-03-07T09:42:50.400Z,73.13
2023-03-07T09:43:50.315Z,78.75
2023-03-07T09:44:50.270Z,90.00
2023-03-07T09:45:50.204Z,95.63
2023-03-07T09:46:50.070Z,84.38
2023-03-07T09:47:49.982Z,78.75
2023-03-07T09:48:49.894Z,73.13
2023-03-07T09:49:49.828Z,73.13
2023-03-07T09:50:49.733Z,73.13
2023-03-07T09:51:49.649Z,73.13
2023-03-07T09:52:49.563Z,84.38
2023-03-07T09:53:49.476Z,90.00
2023-03-07T09:54:49.394Z,90.00
2023-03-07T09:55:49.309Z,84.38
2023-03-07T09:56:49.221Z,90.00
2023-03-07T09:57:49.139Z,90.00
2023-03-07T09:58:49.056Z,90.00
2023-03-07T09:59:48.979Z,95.63
2023-03-07T10:00:48.886Z,90.00
2023-03-07T10:01:48.813Z,84.38
2023-03-07T10:02:48.723Z,84.38
2023-03-07T10:03:48.762Z,78.75
2023-03-07T10:04:48.559Z,78.75
2023-03-07T10:05:48.471Z,84.38
2023-03-07T10:06:48.384Z,101.25
2023-03-07T10:07:48.303Z,118.13
2023-03-07T10:08:48.217Z,157.50
2023-03-07T10:09:48.138Z,185.63
2023-03-07T10:10:48.049Z,180.00
2023-03-07T10:11:48.001Z,213.75
2023-03-07T10:12:47.880Z,146.25
2023-03-07T10:13:47.798Z,135.00
2023-03-07T10:14:47.714Z,112.50
2023-03-07T10:15:47.678Z,101.25
2023-03-07T10:16:47.592Z,146.25
2023-03-07T10:17:47.471Z,135.00
2023-03-07T10:18:47.382Z,185.63
2023-03-07T10:19:47.298Z,174.38
2023-03-07T10:20:47.213Z,151.88
2023-03-07T10:21:47.135Z,140.63
2023-03-07T10:22:47.059Z,146.25
2023-03-07T10:23:46.967Z,180.00
2023-03-07T10:24:46.882Z,146.25
2023-03-07T10:25:46.802Z,196.88
2023-03-07T10:26:46.714Z,140.63
2023-03-07T10:27:46.638Z,146.25
2023-03-07T10:28:46.556Z,112.50
2023-03-07T10:29:46.463Z,101.25
2023-03-07T10:30:46.383Z,118.13
2023-03-07T10:31:46.338Z,90.00
2023-03-07T10:32:46.279Z,106.88
2023-03-07T10:33:46.205Z,95.63
2023-03-07T10:34:46.069Z,101.25
2023-03-07T10:35:45.973Z,112.50
2023-03-07T10:36:45.886Z,90.00
2023-03-07T10:37:45.801Z,112.50
2023-03-07T10:38:45.717Z,90.00
2023-03-07T10:39:45.631Z,90.00
2023-03-07T10:40:45.552Z,90.00
2023-03-07T10:41:45.468Z,73.13
2023-03-07T10:42:45.390Z,67.50
2023-03-07T10:43:45.306Z,61.88
2023-03-07T10:44:45.241Z,61.88
2023-03-07T10:45:45.153Z,56.25
2023-03-07T10:46:55.339Z,56.25
2023-03-07T10:47:44.971Z,56.25
2023-03-07T10:48:44.887Z,50.63
2023-03-07T10:49:44.811Z,50.63
2023-03-07T10:50:44.724Z,50.63
2023-03-07T10:51:44.642Z,50.63
2023-03-07T10:52:44.577Z,50.63
2023-03-07T10:53:44.473Z,56.25
2023-03-07T10:54:44.396Z,61.88
2023-03-07T10:55:44.311Z,61.88
2023-03-07T10:56:44.228Z,61.88
2023-03-07T10:57:44.140Z,56.25
2023-03-07T10:58:44.070Z,50.63
2023-03-07T10:59:43.997Z,50.63
2023-03-07T11:00:43.895Z,56.25
2023-03-07T11:01:43.852Z,50.63
2023-03-07T11:02:43.730Z,50.63
2023-03-07T11:03:52.864Z,45.00
2023-03-07T11:04:43.629Z,45.00
2023-03-07T11:05:43.482Z,39.38
2023-03-07T11:06:43.397Z,39.38
2023-03-07T11:07:43.314Z,33.75
2023-03-07T11:08:43.231Z,33.75
2023-03-07T11:09:43.147Z,28.13
2023-03-07T11:10:43.065Z,28.13
2023-03-07T11:11:42.981Z,28.13
2023-03-07T11:12:42.906Z,22.50
2023-03-07T11:13:42.815Z,22.50
2023-03-07T11:14:42.735Z,22.50
2023-03-07T11:15:42.740Z,16.88
2023-03-07T11:16:42.752Z,16.88
2023-03-07T11:17:42.496Z,16.88
2023-03-07T11:18:42.412Z,16.88
2023-03-07T11:19:42.319Z,16.88
2023-03-07T11:20:42.239Z,16.88
2023-03-07T11:21:42.154Z,16.88
2023-03-07T11:22:42.070Z,16.88
2023-03-07T11:23:42.028Z,16.88
2023-03-07T11:24:41.906Z,22.50
2023-03-07T11:25:41.823Z,22.50
2023-03-07T11:26:41.739Z,28.13
2023-03-07T11:27:41.658Z,28.13
2023-03-07T11:28:41.575Z,22.50
2023-03-07T11:29:41.486Z,22.50
2023-03-07T11:30:41.417Z,22.50
2023-03-07T11:31:41.332Z,22.50
2023-03-07T11:32:41.299Z,28.13
2023-03-07T11:33:53.019Z,28.13
2023-03-07T11:34:41.075Z,28.13
2023-03-07T11:35:40.996Z,28.13
2023-03-07T11:36:40.969Z,33.75
2023-03-07T11:37:40.826Z,33.75
2023-03-07T11:38:40.744Z,33.75
2023-03-07T11:39:40.657Z,33.75
2023-03-07T11:40:40.590Z,33.75
2023-03-07T11:41:40.498Z,28.13
2023-03-07T11:42:40.410Z,28.13
2023-03-07T11:43:40.325Z,28.13
2023-03-07T11:44:40.251Z,22.50
2023-03-07T11:45:40.160Z,22.50
2023-03-07T11:46:40.143Z,22.50
2023-03-07T11:47:40.008Z,22.50
2023-03-07T11:48:39.912Z,22.50
2023-03-07T11:49:39.831Z,22.50
2023-03-07T11:50:39.746Z,22.50
2023-03-07T11:51:39.663Z,28.13
2023-03-07T11:52:39.600Z,28.13
2023-03-07T11:53:39.528Z,28.13
2023-03-07T11:54:39.429Z,28.13
2023-03-07T11:55:39.343Z,33.75
2023-03-07T11:56:39.253Z,33.75
2023-03-07T11:57:39.171Z,33.75
2023-03-07T11:58:39.084Z,33.75
2023-03-07T11:59:39.001Z,33.75
2023-03-07T12:00:38.925Z,28.13
2023-03-07T12:01:38.835Z,28.13
2023-03-07T12:02:38.799Z,28.13
2023-03-07T12:03:38.679Z,28.13
2023-03-07T12:04:38.588Z,28.13
2023-03-07T12:05:38.589Z,28.13
2023-03-07T12:06:38.421Z,28.13
2023-03-07T12:07:38.338Z,28.13
2023-03-07T12:08:38.254Z,28.13
2023-03-07T12:09:38.178Z,33.75
2023-03-07T12:10:38.091Z,33.75
2023-03-07T12:11:38.008Z,33.75
2023-03-07T12:12:37.934Z,28.13
2023-03-07T12:13:37.838Z,28.13
2023-03-07T12:14:37.758Z,22.50
2023-03-07T12:15:37.678Z,22.50
2023-03-07T12:16:37.691Z,22.50
2023-03-07T12:17:37.514Z,16.88
2023-03-07T12:18:37.446Z,16.88
2023-03-07T12:19:37.342Z,16.88
2023-03-07T12:20:37.258Z,16.88
2023-03-07T12:21:37.177Z,16.88
2023-03-07T12:22:37.096Z,16.88
2023-03-07T12:23:37.018Z,11.25
2023-03-07T12:24:36.925Z,11.25
2023-03-07T12:25:36.845Z,11.25
2023-03-07T12:26:36.780Z,11.25
2023-03-07T12:27:36.677Z,11.25
2023-03-07T12:28:36.594Z,11.25
2023-03-07T12:29:36.514Z,11.25
2023-03-07T12:30:36.435Z,11.25
2023-03-07T12:31:36.446Z,11.25
2023-03-07T12:32:36.624Z,16.88
2023-03-07T12:33:36.195Z,16.88
2023-03-07T12:34:36.104Z,16.88
2023-03-07T12:35:36.024Z,16.88
2023-03-07T12:36:35.945Z,16.88
2023-03-07T12:37:35.846Z,16.88
2023-03-07T12:38:36.673Z,16.88
2023-03-07T12:39:35.680Z,16.88
2023-03-07T12:40:35.601Z,16.88
2023-03-07T12:41:35.701Z,16.88
2023-03-07T12:42:35.447Z,22.50
2023-03-07T12:43:35.350Z,22.50
2023-03-07T12:44:35.271Z,22.50
2023-03-07T12:45:35.251Z,22.50
2023-03-07T12:46:35.164Z,22.50
2023-03-07T12:47:35.012Z,22.50
2023-03-07T12:48:34.933Z,16.88
2023-03-07T12:49:40.905Z,16.88
2023-03-07T12:50:34.764Z,11.25
2023-03-07T12:51:34.679Z,11.25
2023-03-07T12:52:34.601Z,11.25
2023-03-07T12:53:34.516Z,5.63
2023-03-07T12:54:34.431Z,5.63
2023-03-07T12:55:34.345Z,5.63
2023-03-07T12:56:34.265Z,5.63
2023-03-07T12:57:34.209Z,5.63
2023-03-07T12:58:34.097Z,11.25
2023-03-07T12:59:34.017Z,11.25
2023-03-07T13:00:33.931Z,11.25
2023-03-07T13:01:33.977Z,11.25
2023-03-07T13:02:33.763Z,11.25
2023-03-07T13:03:33.679Z,11.25
2023-03-07T13:04:33.649Z,11.25